createdAt,value
2019-04-27T00:00:03.638Z,1008.21
2019-04-27T00:01:05.262Z,1008.09
2019-04-27T00:02:03.728Z,1008.13
2019-04-27T00:03:03.925Z,1008.10
2019-04-27T00:04:03.967Z,1008.08
2019-04-27T00:05:03.324Z,1008.02
2019-04-27T00:06:05.404Z,1007.99
2019-04-27T00:07:02.984Z,1008.00
2019-04-27T00:08:02.933Z,1007.95
2019-04-27T00:09:03.506Z,1007.94
2019-04-27T00:10:03.508Z,1007.91
2019-04-27T00:11:06.947Z,1007.86
2019-04-27T00:12:03.469Z,1007.88
2019-04-27T00:13:05.570Z,1007.94
2019-04-27T00:14:03.721Z,1007.87
2019-04-27T00:15:03.325Z,1007.92
2019-04-27T00:16:05.519Z,1007.96
2019-04-27T00:17:03.819Z,1008.02
2019-04-27T00:18:03.564Z,1007.92
2019-04-27T00:19:01.891Z,1007.98
2019-04-27T00:20:04.161Z,1007.88
2019-04-27T00:21:03.492Z,1007.97
2019-04-27T00:22:03.163Z,1007.99
2019-04-27T00:23:03.375Z,1008.01
2019-04-27T00:24:03.414Z,1008.01
2019-04-27T00:25:03.509Z,1008.02
2019-04-27T00:26:03.155Z,1008.22
2019-04-27T00:27:03.278Z,1008.06
2019-04-27T00:28:01.816Z,1008.08
2019-04-27T00:29:01.807Z,1008.01
2019-04-27T00:30:03.690Z,1008.01
2019-04-27T00:31:03.292Z,1007.99
2019-04-27T00:32:01.787Z,1007.92
2019-04-27T00:33:03.040Z,1007.98
2019-04-27T00:34:03.435Z,1008.03
2019-04-27T00:35:03.548Z,1007.94
2019-04-27T00:36:03.017Z,1007.92
2019-04-27T00:37:03.584Z,1007.94
2019-04-27T00:38:03.151Z,1007.94
2019-04-27T00:39:01.725Z,1007.96
2019-04-27T00:40:03.354Z,1007.94
2019-04-27T00:41:02.953Z,1007.92
2019-04-27T00:42:03.207Z,1007.88
2019-04-27T00:43:02.990Z,1007.87
2019-04-27T00:44:03.331Z,1007.92
2019-04-27T00:45:03.019Z,1007.86
2019-04-27T00:46:01.672Z,1007.89
2019-04-27T00:47:03.504Z,1007.89
2019-04-27T00:48:03.336Z,1007.89
2019-04-27T00:49:03.473Z,1007.87
2019-04-27T00:50:03.437Z,1007.93
2019-04-27T00:51:01.628Z,1007.99
2019-04-27T00:52:01.629Z,1007.97
2019-04-27T00:53:03.268Z,1007.97
2019-04-27T00:54:01.613Z,1007.94
2019-04-27T00:55:03.127Z,1007.98
2019-04-27T00:56:01.591Z,1008.03
2019-04-27T00:57:03.168Z,1008.07
2019-04-27T00:58:01.578Z,1008.03
2019-04-27T00:59:03.176Z,1008.03
2019-04-27T01:00:03.215Z,1008.03
2019-04-27T01:01:01.549Z,1008.09
2019-04-27T01:02:01.550Z,1008.07
2019-04-27T01:03:01.547Z,1008.10
2019-04-27T01:04:03.631Z,1008.09
2019-04-27T01:05:01.522Z,1008.10
2019-04-27T01:06:03.128Z,1008.08
2019-04-27T01:07:02.926Z,1008.12
2019-04-27T01:08:01.494Z,1008.16
2019-04-27T01:09:03.372Z,1008.19
2019-04-27T01:10:02.978Z,1008.22
2019-04-27T01:11:02.936Z,1008.22
2019-04-27T01:12:01.465Z,1008.23
2019-04-27T01:13:03.162Z,1008.29
2019-04-27T01:14:01.443Z,1008.24
2019-04-27T01:15:03.552Z,1008.26
2019-04-27T01:16:01.435Z,1008.30
2019-04-27T01:17:01.427Z,1008.36
2019-04-27T01:18:11.500Z,1008.30
2019-04-27T01:19:01.414Z,1008.40
2019-04-27T01:20:01.397Z,1008.36
2019-04-27T01:21:01.392Z,1008.32
2019-04-27T01:22:01.378Z,1008.41
2019-04-27T01:23:01.368Z,1008.47
2019-04-27T01:24:01.366Z,1008.42
2019-04-27T01:25:01.357Z,1008.48
2019-04-27T01:26:01.353Z,1008.51
2019-04-27T01:27:01.345Z,1008.51
2019-04-27T01:28:01.327Z,1008.54
2019-04-27T01:29:01.325Z,1008.53
2019-04-27T01:30:01.323Z,1008.53
2019-04-27T01:31:01.316Z,1008.52
2019-04-27T01:32:01.297Z,1008.52
2019-04-27T01:33:01.289Z,1008.52
2019-04-27T01:34:01.281Z,1008.53
2019-04-27T01:35:01.274Z,1008.43
2019-04-27T01:36:01.274Z,1008.53
2019-04-27T01:37:01.278Z,1008.54
2019-04-27T01:38:01.257Z,1008.47
2019-04-27T01:39:01.244Z,1008.51
2019-04-27T01:40:01.233Z,1008.52
2019-04-27T01:41:01.258Z,1008.52
2019-04-27T01:42:01.247Z,1008.53
2019-04-27T01:43:01.210Z,1008.54
2019-04-27T01:44:01.233Z,1008.55
2019-04-27T01:45:01.197Z,1008.55
2019-04-27T01:46:01.237Z,1008.61
2019-04-27T01:47:01.175Z,1008.61
2019-04-27T01:48:01.190Z,1008.68
2019-04-27T01:49:01.170Z,1008.68
2019-04-27T01:50:01.156Z,1008.71
2019-04-27T01:51:01.153Z,1008.70
2019-04-27T01:52:01.139Z,1008.59
2019-04-27T01:53:01.128Z,1008.61
2019-04-27T01:54:01.118Z,1008.63
2019-04-27T01:55:01.112Z,1008.69
2019-04-27T01:56:01.107Z,1008.68
2019-04-27T01:57:01.957Z,1008.74
2019-04-27T01:58:01.105Z,1008.73
2019-04-27T01:59:01.090Z,1008.76
2019-04-27T02:00:01.071Z,1008.77
2019-04-27T02:01:01.064Z,1008.79
2019-04-27T02:02:01.060Z,1008.81
2019-04-27T02:03:01.056Z,1008.85
2019-04-27T02:04:01.036Z,1008.85
2019-04-27T02:05:01.877Z,1008.83
2019-04-27T02:06:01.024Z,1008.85
2019-04-27T02:07:01.012Z,1008.89
2019-04-27T02:08:01.010Z,1008.89
2019-04-27T02:09:01.004Z,1008.93
2019-04-27T02:10:00.994Z,1008.91
2019-04-27T02:11:00.985Z,1008.90
2019-04-27T02:12:00.971Z,1008.89
2019-04-27T02:13:00.968Z,1008.89
2019-04-27T02:14:00.967Z,1008.85
2019-04-27T02:15:00.952Z,1008.87
2019-04-27T02:16:00.952Z,1008.79
2019-04-27T02:17:00.937Z,1008.81
2019-04-27T02:18:00.923Z,1008.80
2019-04-27T02:19:00.937Z,1008.83
2019-04-27T02:20:00.913Z,1008.81
2019-04-27T02:21:00.904Z,1008.82
2019-04-27T02:22:00.898Z,1008.78
2019-04-27T02:23:00.890Z,1008.83
2019-04-27T02:24:00.885Z,1008.80
2019-04-27T02:25:00.881Z,1008.71
2019-04-27T02:26:00.882Z,1008.68
2019-04-27T02:27:00.849Z,1008.72
2019-04-27T02:28:00.852Z,1008.68
2019-04-27T02:29:00.839Z,1008.66
2019-04-27T02:30:00.833Z,1008.63
2019-04-27T02:31:01.849Z,1008.69
2019-04-27T02:32:02.958Z,1008.67
2019-04-27T02:33:00.806Z,1008.60
2019-04-27T02:34:00.803Z,1008.63
2019-04-27T02:35:00.799Z,1008.56
2019-04-27T02:36:00.795Z,1008.58
2019-04-27T02:37:02.699Z,1008.56
2019-04-27T02:38:00.774Z,1008.52
2019-04-27T02:39:00.751Z,1008.53
2019-04-27T02:40:00.756Z,1008.49
2019-04-27T02:41:00.750Z,1008.52
2019-04-27T02:42:00.740Z,1008.51
2019-04-27T02:43:00.726Z,1008.49
2019-04-27T02:44:01.815Z,1008.55
2019-04-27T02:45:00.703Z,1008.55
2019-04-27T02:46:00.697Z,1008.54
2019-04-27T02:47:00.695Z,1008.52
2019-04-27T02:48:00.684Z,1008.48
2019-04-27T02:49:06.191Z,1008.53
2019-04-27T02:50:00.792Z,1008.49
2019-04-27T02:51:00.655Z,1008.53
2019-04-27T02:52:00.654Z,1008.58
2019-04-27T02:53:03.266Z,1008.50
2019-04-27T02:54:00.671Z,1008.56
2019-04-27T02:55:00.627Z,1008.60
2019-04-27T02:56:00.617Z,1008.60
2019-04-27T02:57:00.608Z,1008.60
2019-04-27T02:58:00.602Z,1008.63
2019-04-27T02:59:00.584Z,1008.63
2019-04-27T03:00:00.585Z,1008.71
2019-04-27T03:01:00.578Z,1008.66
2019-04-27T03:02:00.904Z,1008.71
2019-04-27T03:03:02.400Z,1008.72
2019-04-27T03:04:00.668Z,1008.76
2019-04-27T03:05:00.902Z,1008.76
2019-04-27T03:06:00.538Z,1008.81
2019-04-27T03:07:00.524Z,1008.86
2019-04-27T03:08:00.522Z,1008.81
2019-04-27T03:09:00.843Z,1008.91
2019-04-27T03:10:02.411Z,1008.88
2019-04-27T03:11:01.237Z,1008.84
2019-04-27T03:12:00.495Z,1008.89
2019-04-27T03:13:00.477Z,1008.83
2019-04-27T03:14:00.468Z,1008.87
2019-04-27T03:15:00.478Z,1008.86
2019-04-27T03:16:00.553Z,1008.88
2019-04-27T03:17:00.451Z,1008.93
2019-04-27T03:18:00.430Z,1008.88
2019-04-27T03:19:11.385Z,1008.85
2019-04-27T03:20:00.416Z,1008.93
2019-04-27T03:21:00.567Z,1008.94
2019-04-27T03:22:00.409Z,1008.93
2019-04-27T03:23:00.414Z,1009.00
2019-04-27T03:24:00.398Z,1009.03
2019-04-27T03:25:00.422Z,1008.98
2019-04-27T03:26:00.538Z,1009.03
2019-04-27T03:27:00.657Z,1009.08
2019-04-27T03:28:02.544Z,1009.06
2019-04-27T03:29:00.337Z,1009.11
2019-04-27T03:30:00.348Z,1009.10
2019-04-27T03:31:02.545Z,1009.12
2019-04-27T03:32:02.058Z,1009.14
2019-04-27T03:33:03.057Z,1009.09
2019-04-27T03:34:05.297Z,1009.07
2019-04-27T03:35:02.854Z,1009.10
2019-04-27T03:36:02.516Z,1009.09
2019-04-27T03:37:00.287Z,1009.08
2019-04-27T03:38:00.729Z,1009.10
2019-04-27T03:39:00.275Z,1009.08
2019-04-27T03:40:00.339Z,1009.07
2019-04-27T03:41:00.670Z,1009.10
2019-04-27T03:42:00.336Z,1009.04
2019-04-27T03:43:00.222Z,1009.04
2019-04-27T03:44:00.224Z,1009.03
2019-04-27T03:45:00.706Z,1009.01
2019-04-27T03:46:00.687Z,1008.99
2019-04-27T03:47:00.194Z,1009.04
2019-04-27T03:48:00.493Z,1009.01
2019-04-27T03:49:00.274Z,1008.99
2019-04-27T03:50:00.698Z,1009.08
2019-04-27T03:51:00.155Z,1009.03
2019-04-27T03:52:02.926Z,1008.99
2019-04-27T03:53:00.158Z,1008.96
2019-04-27T03:54:00.601Z,1008.93
2019-04-27T03:55:00.124Z,1008.94
2019-04-27T03:56:00.152Z,1008.95
2019-04-27T03:57:02.403Z,1008.91
2019-04-27T03:58:00.399Z,1008.96
2019-04-27T03:59:00.093Z,1008.93
2019-04-27T04:00:00.240Z,1008.91
2019-04-27T04:01:00.211Z,1008.90
2019-04-27T04:02:02.410Z,1008.90
2019-04-27T04:03:00.638Z,1008.93
2019-04-27T04:04:00.116Z,1008.92
2019-04-27T04:05:00.087Z,1008.90
2019-04-27T04:06:00.398Z,1008.91
2019-04-27T04:07:00.025Z,1008.92
2019-04-27T04:08:00.583Z,1008.90
2019-04-27T04:09:00.420Z,1008.91
2019-04-27T04:10:00.492Z,1008.94
2019-04-27T04:10:59.989Z,1008.96
2019-04-27T04:12:02.247Z,1008.92
2019-04-27T04:13:01.299Z,1008.93
2019-04-27T04:14:00.315Z,1008.95
2019-04-27T04:15:00.162Z,1008.91
2019-04-27T04:16:00.339Z,1008.83
2019-04-27T04:17:02.835Z,1008.77
2019-04-27T04:17:59.957Z,1008.80
2019-04-27T04:19:00.718Z,1008.77
2019-04-27T04:20:01.363Z,1008.81
2019-04-27T04:21:00.543Z,1008.96
2019-04-27T04:22:00.055Z,1008.98
2019-04-27T04:23:03.152Z,1009.04
2019-04-27T04:24:00.880Z,1009.03
2019-04-27T04:25:00.153Z,1009.02
2019-04-27T04:25:59.931Z,1008.96
2019-04-27T04:27:00.148Z,1009.00
2019-04-27T04:28:00.674Z,1008.93
2019-04-27T04:29:00.075Z,1008.93
2019-04-27T04:29:59.828Z,1008.93
2019-04-27T04:31:00.484Z,1008.92
2019-04-27T04:32:00.458Z,1008.96
2019-04-27T04:33:00.092Z,1008.96
2019-04-27T04:34:00.009Z,1008.95
2019-04-27T04:35:01.300Z,1008.93
2019-04-27T04:35:59.964Z,1008.96
2019-04-27T04:37:00.471Z,1008.93
2019-04-27T04:38:00.363Z,1008.89
2019-04-27T04:39:00.633Z,1008.88
2019-04-27T04:39:59.898Z,1008.86
2019-04-27T04:40:59.779Z,1008.87
2019-04-27T04:41:59.944Z,1008.90
2019-04-27T04:43:00.356Z,1008.96
2019-04-27T04:43:59.950Z,1008.97
2019-04-27T04:45:00.464Z,1009.00
2019-04-27T04:45:59.728Z,1009.02
2019-04-27T04:47:00.513Z,1009.07
2019-04-27T04:47:59.803Z,1009.10
2019-04-27T04:49:00.298Z,1009.10
2019-04-27T04:50:08.573Z,1009.06
2019-04-27T04:51:00.054Z,1009.12
2019-04-27T04:51:59.728Z,1009.03
2019-04-27T04:53:00.030Z,1009.05
2019-04-27T04:53:59.944Z,1009.03
2019-04-27T04:55:02.459Z,1009.00
2019-04-27T04:56:00.382Z,1008.99
2019-04-27T04:56:59.646Z,1008.97
2019-04-27T04:57:59.592Z,1008.94
2019-04-27T04:59:00.151Z,1008.95
2019-04-27T04:59:59.578Z,1008.93
2019-04-27T05:01:01.603Z,1008.99
2019-04-27T05:02:00.257Z,1008.99
2019-04-27T05:02:59.706Z,1009.00
2019-04-27T05:03:59.546Z,1009.05
2019-04-27T05:04:59.542Z,1009.08
2019-04-27T05:05:59.524Z,1009.04
2019-04-27T05:06:59.533Z,1009.08
2019-04-27T05:08:00.721Z,1009.08
2019-04-27T05:08:59.645Z,1009.07
2019-04-27T05:09:59.499Z,1009.07
2019-04-27T05:10:59.753Z,1009.11
2019-04-27T05:11:59.478Z,1009.12
2019-04-27T05:12:59.474Z,1009.08
2019-04-27T05:14:01.553Z,1009.10
2019-04-27T05:14:59.458Z,1009.12
2019-04-27T05:15:59.442Z,1009.05
2019-04-27T05:16:59.438Z,1009.11
2019-04-27T05:17:59.427Z,1009.11
2019-04-27T05:18:59.445Z,1009.06
2019-04-27T05:19:59.419Z,1009.09
2019-04-27T05:20:59.441Z,1009.00
2019-04-27T05:21:59.456Z,1009.04
2019-04-27T05:22:59.523Z,1009.05
2019-04-27T05:24:00.716Z,1009.08
2019-04-27T05:24:59.370Z,1009.06
2019-04-27T05:25:59.386Z,1009.09
2019-04-27T05:26:59.374Z,1009.09
2019-04-27T05:27:59.720Z,1009.12
2019-04-27T05:28:59.406Z,1009.14
2019-04-27T05:30:00.225Z,1009.12
2019-04-27T05:31:00.611Z,1009.11
2019-04-27T05:31:59.430Z,1009.10
2019-04-27T05:32:59.316Z,1009.17
2019-04-27T05:33:59.454Z,1009.15
2019-04-27T05:34:59.701Z,1009.09
2019-04-27T05:35:59.283Z,1009.17
2019-04-27T05:37:01.063Z,1009.16
2019-04-27T05:38:02.419Z,1009.16
2019-04-27T05:38:59.786Z,1009.18
2019-04-27T05:39:59.265Z,1009.19
2019-04-27T05:40:59.248Z,1009.21
2019-04-27T05:41:59.705Z,1009.21
2019-04-27T05:42:59.232Z,1009.22
2019-04-27T05:43:59.338Z,1009.21
2019-04-27T05:44:59.222Z,1009.19
2019-04-27T05:46:01.038Z,1009.23
2019-04-27T05:46:59.204Z,1009.17
2019-04-27T05:48:00.685Z,1009.14
2019-04-27T05:49:01.656Z,1009.13
2019-04-27T05:49:59.176Z,1009.15
2019-04-27T05:51:01.908Z,1009.12
2019-04-27T05:51:59.519Z,1009.11
2019-04-27T05:52:59.664Z,1009.17
2019-04-27T05:53:59.146Z,1009.15
2019-04-27T05:54:59.287Z,1009.16
2019-04-27T05:55:59.529Z,1009.17
2019-04-27T05:56:59.321Z,1009.17
2019-04-27T05:57:59.261Z,1009.17
2019-04-27T05:59:00.330Z,1009.20
2019-04-27T06:00:02.350Z,1009.20
2019-04-27T06:00:59.589Z,1009.15
2019-04-27T06:01:59.400Z,1009.17
2019-04-27T06:02:59.189Z,1009.21
2019-04-27T06:03:59.065Z,1009.21
2019-04-27T06:05:00.132Z,1009.16
2019-04-27T06:06:01.665Z,1009.20
2019-04-27T06:07:01.047Z,1009.19
2019-04-27T06:07:59.056Z,1009.19
2019-04-27T06:08:59.498Z,1009.17
2019-04-27T06:09:59.763Z,1009.21
2019-04-27T06:10:59.323Z,1009.19
2019-04-27T06:11:59.192Z,1009.22
2019-04-27T06:12:59.856Z,1009.17
2019-04-27T06:13:59.380Z,1009.17
2019-04-27T06:14:59.942Z,1009.20
2019-04-27T06:15:59.317Z,1009.17
2019-04-27T06:16:59.619Z,1009.18
2019-04-27T06:17:59.643Z,1009.19
2019-04-27T06:18:59.496Z,1009.18
2019-04-27T06:19:59.640Z,1009.24
2019-04-27T06:20:59.821Z,1009.18
2019-04-27T06:22:01.954Z,1009.18
2019-04-27T06:23:00.069Z,1009.16
2019-04-27T06:23:59.053Z,1009.21
2019-04-27T06:25:00.207Z,1009.16
2019-04-27T06:26:01.588Z,1009.14
2019-04-27T06:26:59.703Z,1009.20
2019-04-27T06:27:59.336Z,1009.12
2019-04-27T06:28:59.544Z,1009.12
2019-04-27T06:29:59.430Z,1009.12
2019-04-27T06:30:59.446Z,1009.13
2019-04-27T06:31:59.334Z,1009.11
2019-04-27T06:32:59.480Z,1009.14
2019-04-27T06:33:59.716Z,1009.11
2019-04-27T06:34:59.230Z,1009.13
2019-04-27T06:35:59.461Z,1009.17
2019-04-27T06:36:59.963Z,1009.13
2019-04-27T06:37:58.807Z,1009.18
2019-04-27T06:38:59.051Z,1009.19
2019-04-27T06:39:59.645Z,1009.17
2019-04-27T06:40:59.072Z,1009.24
2019-04-27T06:42:01.217Z,1009.22
2019-04-27T06:42:59.579Z,1009.24
2019-04-27T06:43:59.323Z,1009.29
2019-04-27T06:44:59.857Z,1009.30
2019-04-27T06:45:58.807Z,1009.35
2019-04-27T06:46:59.225Z,1009.32
2019-04-27T06:47:59.542Z,1009.39
2019-04-27T06:48:59.304Z,1009.40
2019-04-27T06:49:58.904Z,1009.37
2019-04-27T06:51:03.659Z,1009.38
2019-04-27T06:51:58.837Z,1009.39
2019-04-27T06:52:59.096Z,1009.35
2019-04-27T06:53:59.513Z,1009.33
2019-04-27T06:55:00.473Z,1009.35
2019-04-27T06:55:58.705Z,1009.33
2019-04-27T06:56:59.227Z,1009.32
2019-04-27T06:57:58.954Z,1009.33
2019-04-27T06:58:59.724Z,1009.35
2019-04-27T06:59:59.129Z,1009.35
2019-04-27T07:00:59.534Z,1009.37
2019-04-27T07:01:59.130Z,1009.38
2019-04-27T07:02:59.663Z,1009.38
2019-04-27T07:03:59.800Z,1009.44
2019-04-27T07:04:59.189Z,1009.40
2019-04-27T07:05:58.953Z,1009.43
2019-04-27T07:06:59.479Z,1009.43
2019-04-27T07:07:59.103Z,1009.43
2019-04-27T07:08:59.751Z,1009.48
2019-04-27T07:09:59.138Z,1009.44
2019-04-27T07:10:58.961Z,1009.45
2019-04-27T07:11:59.259Z,1009.46
2019-04-27T07:12:59.702Z,1009.45
2019-04-27T07:13:59.432Z,1009.42
2019-04-27T07:14:59.283Z,1009.46
2019-04-27T07:15:59.744Z,1009.42
2019-04-27T07:16:59.126Z,1009.42
2019-04-27T07:17:58.689Z,1009.45
2019-04-27T07:18:59.315Z,1009.36
2019-04-27T07:19:59.520Z,1009.37
2019-04-27T07:20:58.796Z,1009.31
2019-04-27T07:21:59.404Z,1009.31
2019-04-27T07:22:59.498Z,1009.28
2019-04-27T07:23:59.322Z,1009.30
2019-04-27T07:24:59.058Z,1009.29
2019-04-27T07:25:59.852Z,1009.32
2019-04-27T07:26:59.714Z,1009.28
2019-04-27T07:27:59.205Z,1009.31
2019-04-27T07:28:59.638Z,1009.29
2019-04-27T07:30:00.834Z,1009.29
2019-04-27T07:30:58.741Z,1009.33
2019-04-27T07:31:59.683Z,1009.34
2019-04-27T07:33:00.239Z,1009.36
2019-04-27T07:33:59.541Z,1009.40
2019-04-27T07:34:58.693Z,1009.40
2019-04-27T07:35:59.089Z,1009.32
2019-04-27T07:36:59.769Z,1009.43
2019-04-27T07:37:58.856Z,1009.43
2019-04-27T07:38:59.814Z,1009.40
2019-04-27T07:39:59.202Z,1009.42
2019-04-27T07:40:58.731Z,1009.44
2019-04-27T07:41:58.674Z,1009.40
2019-04-27T07:42:59.359Z,1009.37
2019-04-27T07:43:58.638Z,1009.41
2019-04-27T07:44:59.494Z,1009.40
2019-04-27T07:45:59.084Z,1009.41
2019-04-27T07:46:59.452Z,1009.40
2019-04-27T07:47:59.143Z,1009.46
2019-04-27T07:48:59.494Z,1009.39
2019-04-27T07:49:59.266Z,1009.39
2019-04-27T07:50:59.082Z,1009.38
2019-04-27T07:51:58.958Z,1009.39
2019-04-27T07:52:58.750Z,1009.37
2019-04-27T07:53:58.872Z,1009.34
2019-04-27T07:54:58.774Z,1009.34
2019-04-27T07:55:59.298Z,1009.35
2019-04-27T07:56:58.802Z,1009.38
2019-04-27T07:57:59.518Z,1009.36
2019-04-27T07:58:59.520Z,1009.34
2019-04-27T07:59:59.648Z,1009.38
2019-04-27T08:00:59.408Z,1009.35
2019-04-27T08:01:59.097Z,1009.34
2019-04-27T08:02:58.636Z,1009.40
2019-04-27T08:03:59.023Z,1009.38
2019-04-27T08:04:59.572Z,1009.43
2019-04-27T08:05:58.812Z,1009.39
2019-04-27T08:06:59.580Z,1009.40
2019-04-27T08:07:59.980Z,1009.40
2019-04-27T08:08:59.376Z,1009.39
2019-04-27T08:10:01.111Z,1009.39
2019-04-27T08:10:59.517Z,1009.34
2019-04-27T08:11:58.641Z,1009.33
2019-04-27T08:12:59.745Z,1009.32
2019-04-27T08:13:58.807Z,1009.32
2019-04-27T08:14:59.906Z,1009.31
2019-04-27T08:15:59.038Z,1009.28
2019-04-27T08:16:58.683Z,1009.27
2019-04-27T08:17:59.168Z,1009.30
2019-04-27T08:19:00.029Z,1009.31
2019-04-27T08:19:59.568Z,1009.27
2019-04-27T08:20:59.082Z,1009.33
2019-04-27T08:21:59.635Z,1009.31
2019-04-27T08:22:59.839Z,1009.31
2019-04-27T08:23:58.633Z,1009.28
2019-04-27T08:24:59.468Z,1009.25
2019-04-27T08:25:58.888Z,1009.24
2019-04-27T08:26:59.413Z,1009.23
2019-04-27T08:27:57.991Z,1009.26
2019-04-27T08:28:58.641Z,1009.18
2019-04-27T08:29:58.803Z,1009.22
2019-04-27T08:30:58.576Z,1009.20
2019-04-27T08:31:58.543Z,1009.21
2019-04-27T08:32:59.347Z,1009.19
2019-04-27T08:33:58.581Z,1009.20
2019-04-27T08:34:59.494Z,1009.22
2019-04-27T08:35:59.045Z,1009.17
2019-04-27T08:36:58.474Z,1009.15
2019-04-27T08:37:59.429Z,1009.18
2019-04-27T08:38:58.884Z,1009.15
2019-04-27T08:39:59.230Z,1009.18
2019-04-27T08:40:59.251Z,1009.21
2019-04-27T08:41:59.474Z,1009.16
2019-04-27T08:42:59.224Z,1009.19
2019-04-27T08:43:58.726Z,1009.13
2019-04-27T08:44:59.401Z,1009.19
2019-04-27T08:45:58.732Z,1009.12
2019-04-27T08:46:59.495Z,1009.16
2019-04-27T08:47:59.558Z,1009.10
2019-04-27T08:48:58.713Z,1009.11
2019-04-27T08:49:59.110Z,1009.12
2019-04-27T08:50:59.330Z,1009.13
2019-04-27T08:52:01.325Z,1009.12
2019-04-27T08:52:57.821Z,1009.08
2019-04-27T08:53:59.137Z,1009.05
2019-04-27T08:54:59.418Z,1009.07
2019-04-27T08:55:59.182Z,1009.10
2019-04-27T08:56:59.628Z,1009.09
2019-04-27T08:57:58.720Z,1009.15
2019-04-27T08:58:59.432Z,1009.11
2019-04-27T08:59:59.723Z,1009.16
2019-04-27T09:00:59.041Z,1009.16
2019-04-27T09:01:58.747Z,1009.23
2019-04-27T09:02:59.375Z,1009.23
2019-04-27T09:03:59.286Z,1009.20
2019-04-27T09:04:59.514Z,1009.17
2019-04-27T09:05:59.019Z,1009.21
2019-04-27T09:06:59.514Z,1009.15
2019-04-27T09:07:59.510Z,1009.17
2019-04-27T09:08:59.288Z,1009.20
2019-04-27T09:09:59.537Z,1009.19
2019-04-27T09:10:58.988Z,1009.24
2019-04-27T09:11:59.385Z,1009.21
2019-04-27T09:12:58.872Z,1009.23
2019-04-27T09:13:58.924Z,1009.21
2019-04-27T09:14:59.207Z,1009.18
2019-04-27T09:15:57.658Z,1009.13
2019-04-27T09:17:00.764Z,1009.18
2019-04-27T09:17:58.859Z,1009.13
2019-04-27T09:18:59.664Z,1009.12
2019-04-27T09:19:59.113Z,1009.12
2019-04-27T09:20:58.956Z,1009.18
2019-04-27T09:22:10.383Z,1009.14
2019-04-27T09:22:59.192Z,1009.09
2019-04-27T09:23:59.248Z,1009.12
2019-04-27T09:24:59.392Z,1009.12
2019-04-27T09:25:59.327Z,1009.17
2019-04-27T09:26:59.505Z,1009.13
2019-04-27T09:27:59.581Z,1009.09
2019-04-27T09:28:59.495Z,1009.07
2019-04-27T09:29:59.066Z,1009.15
2019-04-27T09:30:58.673Z,1009.18
2019-04-27T09:31:59.619Z,1009.14
2019-04-27T09:32:57.556Z,1009.15
2019-04-27T09:33:57.547Z,1009.17
2019-04-27T09:34:57.551Z,1009.17
2019-04-27T09:35:57.528Z,1009.14
2019-04-27T09:36:57.527Z,1009.15
2019-04-27T09:37:57.516Z,1009.19
2019-04-27T09:38:57.512Z,1009.12
2019-04-27T09:39:57.508Z,1009.17
2019-04-27T09:40:58.094Z,1009.17
2019-04-27T09:41:57.495Z,1009.10
2019-04-27T09:42:57.489Z,1009.12
2019-04-27T09:43:57.474Z,1009.14
2019-04-27T09:44:57.470Z,1009.12
2019-04-27T09:45:57.473Z,1009.16
2019-04-27T09:46:57.483Z,1009.13
2019-04-27T09:47:57.453Z,1009.17
2019-04-27T09:48:57.448Z,1009.17
2019-04-27T09:49:57.438Z,1009.16
2019-04-27T09:50:57.433Z,1009.08
2019-04-27T09:51:57.432Z,1009.12
2019-04-27T09:52:57.426Z,1009.06
2019-04-27T09:53:57.421Z,1009.08
2019-04-27T09:54:57.416Z,1009.08
2019-04-27T09:55:57.420Z,1009.04
2019-04-27T09:56:57.394Z,1009.01
2019-04-27T09:57:57.392Z,1009.03
2019-04-27T09:58:57.413Z,1008.97
2019-04-27T09:59:57.387Z,1009.01
2019-04-27T10:00:57.384Z,1009.02
2019-04-27T10:01:57.684Z,1009.01
2019-04-27T10:02:57.373Z,1009.03
2019-04-27T10:03:57.355Z,1008.98
2019-04-27T10:04:57.356Z,1009.03
2019-04-27T10:05:57.346Z,1009.05
2019-04-27T10:06:57.338Z,1009.03
2019-04-27T10:07:57.329Z,1009.08
2019-04-27T10:08:57.755Z,1009.08
2019-04-27T10:09:57.314Z,1009.00
2019-04-27T10:10:57.315Z,1009.06
2019-04-27T10:11:57.321Z,1009.06
2019-04-27T10:12:57.307Z,1009.04
2019-04-27T10:13:57.297Z,1009.04
2019-04-27T10:14:57.288Z,1009.03
2019-04-27T10:15:57.277Z,1009.01
2019-04-27T10:16:57.276Z,1009.01
2019-04-27T10:17:57.671Z,1008.95
2019-04-27T10:18:57.272Z,1008.98
2019-04-27T10:19:57.252Z,1008.98
2019-04-27T10:21:01.853Z,1008.99
2019-04-27T10:21:57.244Z,1008.97
2019-04-27T10:22:57.259Z,1008.99
2019-04-27T10:23:57.239Z,1008.97
2019-04-27T10:24:57.233Z,1008.96
2019-04-27T10:25:57.253Z,1008.95
2019-04-27T10:26:57.219Z,1009.00
2019-04-27T10:27:57.204Z,1008.97
2019-04-27T10:28:57.201Z,1008.95
2019-04-27T10:29:58.596Z,1008.98
2019-04-27T10:30:57.189Z,1008.97
2019-04-27T10:31:57.188Z,1008.94
2019-04-27T10:32:57.180Z,1008.92
2019-04-27T10:33:57.170Z,1008.94
2019-04-27T10:34:57.163Z,1008.94
2019-04-27T10:35:57.165Z,1008.98
2019-04-27T10:36:57.160Z,1008.96
2019-04-27T10:37:57.150Z,1008.89
2019-04-27T10:38:57.142Z,1008.91
2019-04-27T10:39:57.139Z,1008.86
2019-04-27T10:40:57.132Z,1008.89
2019-04-27T10:41:57.123Z,1008.94
2019-04-27T10:42:57.121Z,1008.94
2019-04-27T10:43:57.115Z,1008.90
2019-04-27T10:44:57.111Z,1008.95
2019-04-27T10:45:57.109Z,1008.95
2019-04-27T10:46:57.096Z,1009.03
2019-04-27T10:47:57.084Z,1008.97
2019-04-27T10:48:57.080Z,1008.95
2019-04-27T10:49:57.078Z,1008.94
2019-04-27T10:50:57.076Z,1008.96
2019-04-27T10:51:57.064Z,1008.91
2019-04-27T10:52:59.326Z,1008.92
2019-04-27T10:53:57.048Z,1008.85
2019-04-27T10:54:57.480Z,1008.84
2019-04-27T10:55:57.054Z,1008.88
2019-04-27T10:56:57.045Z,1008.84
2019-04-27T10:57:57.033Z,1008.84
2019-04-27T10:58:57.025Z,1008.84
2019-04-27T10:59:57.016Z,1008.88
2019-04-27T11:00:58.426Z,1008.84
2019-04-27T11:01:57.006Z,1008.88
2019-04-27T11:02:58.364Z,1008.88
2019-04-27T11:03:57.526Z,1008.93
2019-04-27T11:04:56.993Z,1008.90
2019-04-27T11:05:57.066Z,1008.90
2019-04-27T11:06:56.972Z,1008.85
2019-04-27T11:07:56.982Z,1008.87
2019-04-27T11:08:56.965Z,1008.83
2019-04-27T11:09:56.965Z,1008.86
2019-04-27T11:10:56.955Z,1008.84
2019-04-27T11:11:56.946Z,1008.82
2019-04-27T11:12:56.944Z,1008.80
2019-04-27T11:14:00.734Z,1008.76
2019-04-27T11:14:56.923Z,1008.75
2019-04-27T11:15:56.934Z,1008.79
2019-04-27T11:16:56.926Z,1008.76
2019-04-27T11:17:56.917Z,1008.78
2019-04-27T11:18:58.673Z,1008.70
2019-04-27T11:19:56.899Z,1008.73
2019-04-27T11:20:56.889Z,1008.66
2019-04-27T11:21:56.890Z,1008.68
2019-04-27T11:23:07.199Z,1008.66
2019-04-27T11:23:56.878Z,1008.68
2019-04-27T11:24:56.869Z,1008.64
2019-04-27T11:25:56.863Z,1008.63
2019-04-27T11:26:56.859Z,1008.60
2019-04-27T11:27:57.861Z,1008.59
2019-04-27T11:28:58.703Z,1008.59
2019-04-27T11:30:01.515Z,1008.60
2019-04-27T11:30:56.843Z,1008.60
2019-04-27T11:31:56.829Z,1008.57
2019-04-27T11:32:59.205Z,1008.56
2019-04-27T11:33:56.817Z,1008.56
2019-04-27T11:34:56.815Z,1008.59
2019-04-27T11:35:56.846Z,1008.62
2019-04-27T11:36:56.830Z,1008.53
2019-04-27T11:37:56.800Z,1008.51
2019-04-27T11:38:56.793Z,1008.51
2019-04-27T11:39:56.800Z,1008.49
2019-04-27T11:40:56.827Z,1008.47
2019-04-27T11:41:56.783Z,1008.41
2019-04-27T11:42:57.358Z,1008.42
2019-04-27T11:43:56.769Z,1008.43
2019-04-27T11:44:58.297Z,1008.49
2019-04-27T11:45:56.761Z,1008.47
2019-04-27T11:46:56.743Z,1008.46
2019-04-27T11:47:57.098Z,1008.43
2019-04-27T11:48:58.395Z,1008.40
2019-04-27T11:49:57.952Z,1008.44
2019-04-27T11:50:56.732Z,1008.42
2019-04-27T11:51:56.822Z,1008.35
2019-04-27T11:52:56.791Z,1008.39
2019-04-27T11:53:56.715Z,1008.46
2019-04-27T11:54:56.717Z,1008.45
2019-04-27T11:55:56.692Z,1008.44
2019-04-27T11:56:56.681Z,1008.44
2019-04-27T11:57:56.686Z,1008.45
2019-04-27T11:58:56.673Z,1008.43
2019-04-27T11:59:58.085Z,1008.43
2019-04-27T12:00:56.668Z,1008.47
2019-04-27T12:01:56.673Z,1008.47
2019-04-27T12:02:56.858Z,1008.41
2019-04-27T12:03:56.652Z,1008.40
2019-04-27T12:04:56.640Z,1008.35